Time;durP1;ratioP1;P1;durP2;ratioP2;P2;SDS_P1;SDS_P2;PMS_P1;PMS_P2;Temp;Humidity;BMP_temperature;BMP_pressure;BME280_temperature;BME280_humidity;BME280_pressure;Samples;Min_cycle;Max_cycle;Signal;HPM_P1;HPM_P2
2022/01/13 00:00:51;;;;;;;46.70;20.35;;;-3.10;99.90;;;;;;4933557;29;20051;-69
2022/01/13 00:03:17;;;;;;;44.58;19.52;;;-3.10;99.90;;;;;;4925457;29;20036;-69
2022/01/13 00:05:48;;;;;;;43.25;19.42;;;-3.10;99.90;;;;;;4933744;29;20031;-69
2022/01/13 00:08:14;;;;;;;54.58;20.00;;;-3.10;99.90;;;;;;4932296;29;20035;-69
2022/01/13 00:10:40;;;;;;;46.33;21.02;;;-3.10;99.90;;;;;;4919744;29;20032;-70
2022/01/13 00:13:08;;;;;;;45.25;20.83;;;-3.10;99.90;;;;;;4927637;29;20031;-69
2022/01/13 00:18:52;;;;;;;42.45;20.17;;;-3.10;99.90;;;;;;4933758;29;20039;-70
2022/01/13 00:26:32;;;;;;;46.50;21.40;;;-3.20;99.90;;;;;;4934973;29;20512;-69
2022/01/13 00:28:56;;;;;;;44.00;20.63;;;-3.20;99.90;;;;;;4936806;29;20381;-70
2022/01/13 00:31:30;;;;;;;47.55;20.48;;;-3.30;99.90;;;;;;4919863;29;20039;-69
2022/01/13 00:34:04;;;;;;;45.22;21.17;;;-3.30;99.90;;;;;;4920176;29;20127;-70
2022/01/13 00:36:33;;;;;;;43.88;19.70;;;-3.30;99.90;;;;;;4929229;29;20504;-70
2022/01/13 00:38:59;;;;;;;43.22;20.30;;;-3.30;99.90;;;;;;4922215;29;20022;-70
2022/01/13 00:41:27;;;;;;;44.78;19.92;;;-3.30;99.90;;;;;;4938986;29;20477;-69
2022/01/13 00:43:54;;;;;;;43.40;19.13;;;-3.30;99.90;;;;;;4915292;29;20028;-69
2022/01/13 00:46:23;;;;;;;44.92;20.75;;;-3.30;99.90;;;;;;4941192;29;20028;-69
2022/01/13 00:48:55;;;;;;;42.85;19.77;;;-3.40;99.90;;;;;;4923605;29;20027;-68
2022/01/13 00:51:25;;;;;;;43.08;20.48;;;-3.40;99.90;;;;;;4945574;29;20106;-69
2022/01/13 00:53:52;;;;;;;38.20;18.77;;;-3.40;99.90;;;;;;4928386;29;20035;-69
2022/01/13 00:56:18;;;;;;;40.83;18.05;;;-3.40;99.90;;;;;;4944453;29;20034;-69
2022/01/13 00:58:44;;;;;;;42.30;19.77;;;-3.40;99.90;;;;;;4914623;29;21022;-69
2022/01/13 01:01:10;;;;;;;41.60;18.45;;;-3.40;99.90;;;;;;4942694;29;20132;-69
2022/01/13 01:03:36;;;;;;;48.50;20.23;;;-3.40;99.90;;;;;;4944916;29;20055;-68
2022/01/13 01:06:04;;;;;;;44.22;19.65;;;-3.40;99.90;;;;;;4919355;29;20032;-69
2022/01/13 01:08:31;;;;;;;42.13;19.08;;;-3.40;99.90;;;;;;4919919;29;20047;-68
2022/01/13 01:11:00;;;;;;;39.47;18.98;;;-3.40;99.90;;;;;;4938553;29;20024;-69
2022/01/13 01:13:29;;;;;;;42.22;18.45;;;-3.40;99.90;;;;;;4940379;29;20373;-67
2022/01/13 01:15:57;;;;;;;40.38;19.77;;;-3.40;99.90;;;;;;4929641;29;20051;-68
2022/01/13 01:26:38;;;;;;;39.63;18.02;;;-3.50;99.90;;;;;;4940752;29;20051;-69
2022/01/13 01:29:31;;;;;;;;;;;;;;;;;;;;;
2022/01/13 01:31:52;;;;;;;41.65;18.55;;;-3.50;99.90;;;;;;4937774;29;20123;-69
2022/01/13 01:37:03;;;;;;;41.85;18.13;;;-3.50;99.90;;;;;;4937468;28;20074;-69
2022/01/13 01:39:28;;;;;;;39.80;17.60;;;-3.50;99.90;;;;;;4943154;29;20026;-69
2022/01/13 01:41:56;;;;;;;39.88;17.80;;;-3.40;99.90;;;;;;4934368;29;20024;-69
2022/01/13 01:44:32;;;;;;;38.88;17.85;;;-3.50;99.90;;;;;;4935886;29;20063;-69
2022/01/13 01:47:00;;;;;;;40.80;18.77;;;-3.50;99.90;;;;;;4945308;29;20051;-69
2022/01/13 01:49:27;;;;;;;39.05;18.25;;;-3.50;99.90;;;;;;4932686;29;20507;-68
2022/01/13 01:51:59;;;;;;;40.03;16.52;;;-3.50;99.90;;;;;;4940531;29;20029;-69
2022/01/13 01:54:26;;;;;;;40.90;17.63;;;-3.60;99.90;;;;;;4935131;29;20040;-69
2022/01/13 01:56:52;;;;;;;39.53;17.17;;;-3.60;99.90;;;;;;4915089;29;20470;-69
2022/01/13 01:59:22;;;;;;;39.22;18.30;;;-3.60;99.90;;;;;;4934962;29;20028;-68
2022/01/13 02:01:49;;;;;;;39.28;18.63;;;-3.60;99.90;;;;;;4929098;29;20031;-69
2022/01/13 02:04:16;;;;;;;35.25;16.77;;;-3.60;99.90;;;;;;4928985;29;20024;-69
2022/01/13 02:06:45;;;;;;;42.33;18.63;;;-3.60;99.90;;;;;;4934555;29;20030;-68
2022/01/13 02:09:14;;;;;;;38.90;18.05;;;-3.60;99.90;;;;;;4938617;29;20020;-69
2022/01/13 02:11:44;;;;;;;42.13;19.27;;;-3.60;99.90;;;;;;4936654;29;20075;-69
2022/01/13 02:17:08;;;;;;;41.83;19.60;;;-3.60;99.90;;;;;;4928807;29;20495;-68
2022/01/13 02:19:37;;;;;;;42.13;18.85;;;-3.60;99.90;;;;;;4930665;29;20028;-69
2022/01/13 02:22:03;;;;;;;37.80;17.88;;;-3.60;99.90;;;;;;4935753;29;20495;-69
2022/01/13 02:24:29;;;;;;;42.60;18.10;;;-3.70;99.90;;;;;;4935076;29;20032;-68
2022/01/13 02:26:55;;;;;;;43.30;19.20;;;-3.70;99.90;;;;;;4938058;29;20378;-70
2022/01/13 02:29:24;;;;;;;41.35;19.27;;;-3.60;99.90;;;;;;4933708;29;20024;-70
2022/01/13 02:31:51;;;;;;;44.72;19.10;;;-3.70;99.90;;;;;;4937555;29;20046;-70
2022/01/13 02:34:18;;;;;;;43.40;18.80;;;-3.70;99.90;;;;;;4918012;29;20114;-69
2022/01/13 02:36:50;;;;;;;43.03;19.52;;;-3.70;99.90;;;;;;4927639;29;20039;-70
2022/01/13 02:39:16;;;;;;;41.40;16.60;;;-3.70;99.90;;;;;;4921085;29;20473;-67
2022/01/13 02:41:44;;;;;;;39.15;18.00;;;-3.70;99.90;;;;;;4938908;29;20034;-69
2022/01/13 02:44:16;;;;;;;37.22;17.52;;;-3.70;99.90;;;;;;4933925;29;20110;-69
2022/01/13 02:49:13;;;;;;;44.40;18.20;;;-3.70;99.90;;;;;;4932480;28;20031;-69
2022/01/13 02:51:42;;;;;;;38.17;16.85;;;-3.70;99.90;;;;;;4927036;29;20040;-70
2022/01/13 02:54:08;;;;;;;40.08;17.98;;;-3.80;99.90;;;;;;4931324;29;20111;-69
2022/01/13 02:56:35;;;;;;;39.40;17.58;;;-3.80;99.90;;;;;;4925029;29;20031;-70
2022/01/13 02:59:00;;;;;;;37.65;17.02;;;-3.80;99.90;;;;;;4921751;29;20534;-70
2022/01/13 03:01:29;;;;;;;35.85;16.60;;;-3.70;99.90;;;;;;4934366;29;20035;-70
2022/01/13 03:03:55;;;;;;;35.17;17.58;;;-3.80;99.90;;;;;;4937714;29;20027;-70
2022/01/13 03:06:28;;;;;;;41.10;17.85;;;-3.80;99.90;;;;;;4931126;29;20552;-69
2022/01/13 03:08:54;;;;;;;45.07;20.00;;;-3.70;99.90;;;;;;4939708;29;20055;-70
2022/01/13 03:11:23;;;;;;;36.42;17.73;;;-3.70;99.90;;;;;;4916337;29;20754;-68
2022/01/13 03:13:49;;;;;;;39.13;17.67;;;-3.80;99.90;;;;;;4935443;29;20024;-69
2022/01/13 03:16:15;;;;;;;38.40;16.98;;;-3.80;99.90;;;;;;4929414;29;20036;-69
2022/01/13 03:18:41;;;;;;;37.00;17.05;;;-3.80;99.90;;;;;;4913908;29;20397;-69
2022/01/13 03:21:08;;;;;;;39.75;17.80;;;-3.80;99.90;;;;;;4942685;29;20030;-69
2022/01/13 03:23:35;;;;;;;32.20;15.90;;;-3.80;99.90;;;;;;4902072;29;20106;-71
2022/01/13 03:26:02;;;;;;;31.83;16.23;;;-3.70;99.90;;;;;;4939245;28;20154;-70
2022/01/13 03:28:51;;;;;;;36.90;17.10;;;-3.70;99.90;;;;;;4959137;28;20036;-69
2022/01/13 03:31:19;;;;;;;34.80;16.05;;;-3.80;99.90;;;;;;4944265;28;21261;-67
2022/01/13 03:33:45;;;;;;;38.95;16.92;;;-3.80;99.90;;;;;;4940473;29;20059;-69
2022/01/13 03:36:11;;;;;;;35.83;16.48;;;-3.80;99.90;;;;;;4961963;28;20109;-69
2022/01/13 03:38:38;;;;;;;37.38;17.42;;;-3.70;99.90;;;;;;4949687;28;20032;-69
2022/01/13 03:41:04;;;;;;;38.65;16.95;;;-3.80;99.90;;;;;;4954326;28;20389;-69
2022/01/13 03:43:30;;;;;;;36.08;16.80;;;-3.70;99.90;;;;;;4957835;28;20492;-69
2022/01/13 03:45:56;;;;;;;33.55;15.77;;;-3.80;99.90;;;;;;4956845;28;20388;-68
2022/01/13 03:48:21;;;;;;;34.22;16.58;;;-3.70;99.90;;;;;;4950174;29;20103;-70
2022/01/13 03:50:47;;;;;;;37.63;16.75;;;-3.70;99.90;;;;;;4953406;28;20027;-69
2022/01/13 03:53:28;;;;;;;33.13;15.75;;;-3.70;99.90;;;;;;4952685;28;20452;-73
2022/01/13 03:56:18;;;;;;;43.25;18.30;;;-3.80;99.90;;;;;;4951298;28;20087;-73
2022/01/13 03:59:14;;;;;;;37.70;17.30;;;-3.70;99.90;;;;;;4955370;28;20476;-73
2022/01/13 04:01:58;;;;;;;42.70;20.23;;;-3.80;99.90;;;;;;4953480;28;20039;-71
2022/01/13 04:04:24;;;;;;;45.83;20.58;;;-3.80;99.90;;;;;;4954668;28;20027;-73
2022/01/13 04:06:49;;;;;;;41.00;17.48;;;-3.80;99.90;;;;;;4931272;28;20452;-73
2022/01/13 04:09:33;;;;;;;42.97;18.35;;;-3.90;99.90;;;;;;4961943;28;20089;-73
2022/01/13 04:12:06;;;;;;;35.17;16.80;;;-3.90;99.90;;;;;;4957593;28;20027;-73
2022/01/13 04:14:42;;;;;;;43.95;19.30;;;-4.00;99.90;;;;;;4952413;28;20109;-74
2022/01/13 04:17:13;;;;;;;39.83;18.65;;;-4.00;99.90;;;;;;4941571;28;20031;-74
2022/01/13 04:19:41;;;;;;;39.63;18.08;;;-4.10;99.90;;;;;;4956823;28;20031;-73
2022/01/13 04:22:08;;;;;;;44.20;20.15;;;-4.10;99.90;;;;;;4956083;28;20057;-73
2022/01/13 04:24:35;;;;;;;44.92;19.17;;;-4.10;99.90;;;;;;4957239;28;20085;-73
2022/01/13 04:27:01;;;;;;;44.63;19.80;;;-4.10;99.90;;;;;;4954579;28;20728;-73
2022/01/13 04:29:33;;;;;;;40.47;20.35;;;-4.10;99.90;;;;;;4957772;28;20035;-73
2022/01/13 04:31:58;;;;;;;44.30;21.02;;;-4.10;99.90;;;;;;4939266;28;20067;-73
2022/01/13 04:34:25;;;;;;;44.42;20.88;;;-4.10;99.90;;;;;;4950814;28;20074;-72
2022/01/13 04:36:51;;;;;;;41.35;18.30;;;-4.10;99.90;;;;;;4955695;28;20027;-72
2022/01/13 04:39:17;;;;;;;39.60;17.88;;;-4.10;99.90;;;;;;4953547;28;20031;-72
2022/01/13 04:41:45;;;;;;;34.50;15.85;;;-4.10;99.90;;;;;;4952921;28;20026;-71
2022/01/13 04:44:14;;;;;;;37.88;17.50;;;-4.10;99.90;;;;;;4951932;28;20058;-71
2022/01/13 04:46:40;;;;;;;34.53;16.52;;;-4.10;99.90;;;;;;4952574;28;21653;-72
2022/01/13 04:49:07;;;;;;;36.00;16.83;;;-4.10;99.90;;;;;;4933695;28;20627;-72
2022/01/13 04:51:34;;;;;;;34.35;16.30;;;-4.10;99.90;;;;;;4957496;28;20144;-72
2022/01/13 04:53:59;;;;;;;39.85;16.95;;;-4.10;99.90;;;;;;4953588;28;20119;-72
2022/01/13 04:56:44;;;;;;;36.10;17.45;;;-4.10;99.90;;;;;;4956111;28;20065;-72
2022/01/13 04:59:11;;;;;;;44.50;19.25;;;-4.10;99.90;;;;;;4950918;28;20133;-74
2022/01/13 05:01:37;;;;;;;41.05;17.70;;;-4.10;99.90;;;;;;4946851;28;20058;-73
2022/01/13 05:04:04;;;;;;;40.45;18.75;;;-4.10;99.90;;;;;;4951845;28;20548;-73
2022/01/13 05:06:30;;;;;;;37.78;17.50;;;-4.10;99.90;;;;;;4951462;28;20031;-73
2022/01/13 05:08:55;;;;;;;40.05;16.33;;;-4.10;99.90;;;;;;4956410;28;20392;-74
2022/01/13 05:11:22;;;;;;;35.92;16.73;;;-4.20;99.90;;;;;;4941240;28;20054;-73
2022/01/13 05:13:47;;;;;;;37.50;17.20;;;-4.20;99.90;;;;;;4953219;28;20035;-73
2022/01/13 05:17:01;;;;;;;35.92;17.10;;;-4.20;99.90;;;;;;4948423;28;20028;-72
2022/01/13 05:24:09;;;;;;;32.03;15.38;;;-4.20;99.90;;;;;;4951801;28;20037;-71
2022/01/13 05:26:34;;;;;;;35.95;16.60;;;-4.10;99.90;;;;;;4958428;28;20114;-73
2022/01/13 05:29:00;;;;;;;34.03;15.23;;;-4.10;99.90;;;;;;4951933;28;20031;-73
2022/01/13 05:31:26;;;;;;;36.85;15.95;;;-4.10;99.90;;;;;;4957930;28;20031;-72
2022/01/13 05:33:51;;;;;;;33.58;15.88;;;-4.20;99.90;;;;;;4951007;28;20114;-73
2022/01/13 05:36:17;;;;;;;35.25;15.88;;;-4.20;99.90;;;;;;4950331;28;20624;-72
2022/01/13 05:38:43;;;;;;;33.42;15.60;;;-4.10;99.90;;;;;;4953972;28;20578;-72
2022/01/13 05:41:12;;;;;;;32.63;15.25;;;-4.10;99.90;;;;;;4952181;28;20481;-72
2022/01/13 05:43:37;;;;;;;36.83;15.70;;;-4.10;99.90;;;;;;4953154;28;20369;-72
2022/01/13 05:46:04;;;;;;;33.75;15.48;;;-4.10;99.90;;;;;;4956648;28;20030;-72
2022/01/13 05:48:31;;;;;;;34.72;15.90;;;-4.20;99.90;;;;;;4961115;28;20089;-72
2022/01/13 05:50:57;;;;;;;36.28;14.43;;;-4.10;99.90;;;;;;4955138;28;20026;-72
2022/01/13 05:53:23;;;;;;;33.03;14.90;;;-4.20;99.90;;;;;;4953980;28;20161;-73
2022/01/13 05:55:54;;;;;;;36.38;16.52;;;-4.20;99.90;;;;;;4954405;28;20091;-73
2022/01/13 05:58:20;;;;;;;34.85;15.20;;;-4.20;99.90;;;;;;4949575;28;20031;-72
2022/01/13 06:00:45;;;;;;;36.72;16.52;;;-4.20;99.90;;;;;;4948913;28;20027;-72
2022/01/13 06:03:11;;;;;;;40.28;19.20;;;-4.30;99.90;;;;;;4946107;28;20027;-72
2022/01/13 06:05:37;;;;;;;41.05;18.27;;;-4.30;99.90;;;;;;4950582;28;20024;-73
2022/01/13 06:08:04;;;;;;;41.80;19.08;;;-4.30;99.90;;;;;;4937029;28;20027;-73
2022/01/13 06:10:30;;;;;;;40.78;21.13;;;-4.30;99.90;;;;;;4937856;28;20190;-73
2022/01/13 06:12:55;;;;;;;44.05;22.40;;;-4.30;99.90;;;;;;4950912;28;20536;-73
2022/01/13 06:15:24;;;;;;;42.88;19.98;;;-4.30;99.90;;;;;;4951783;28;20560;-73
2022/01/13 06:17:52;;;;;;;43.70;20.95;;;-4.30;99.90;;;;;;4933829;28;20023;-73
2022/01/13 06:20:19;;;;;;;35.97;18.83;;;-4.30;99.90;;;;;;4946720;28;20031;-73
2022/01/13 06:22:47;;;;;;;37.20;17.85;;;-4.30;99.90;;;;;;4956747;28;20374;-74
2022/01/13 06:25:14;;;;;;;39.45;18.17;;;-4.30;99.90;;;;;;4955328;28;20110;-73
2022/01/13 06:27:40;;;;;;;37.80;16.10;;;-4.30;99.90;;;;;;4956238;28;20094;-74
2022/01/13 06:30:08;;;;;;;35.97;15.95;;;-4.30;99.90;;;;;;4953109;28;20054;-74
2022/01/13 06:32:34;;;;;;;37.42;15.73;;;-4.30;99.90;;;;;;4935550;28;20981;-75
2022/01/13 06:35:04;;;;;;;34.30;15.85;;;-4.30;99.90;;;;;;4931094;28;20485;-73
2022/01/13 06:37:35;;;;;;;34.42;16.25;;;-4.20;99.90;;;;;;4948157;28;20037;-73
2022/01/13 06:40:03;;;;;;;37.25;16.45;;;-4.20;99.90;;;;;;4929026;28;20073;-73
2022/01/13 06:42:29;;;;;;;34.63;14.20;;;-4.30;99.90;;;;;;4951302;28;20028;-73
2022/01/13 06:44:55;;;;;;;36.95;16.10;;;-4.20;99.90;;;;;;4946193;28;20023;-72
2022/01/13 06:47:20;;;;;;;36.42;15.82;;;-4.20;99.90;;;;;;4954896;28;20085;-72
2022/01/13 06:49:46;;;;;;;38.47;15.95;;;-4.20;99.90;;;;;;4948773;28;20512;-72
2022/01/13 06:52:13;;;;;;;45.55;18.75;;;-4.20;99.90;;;;;;4949597;28;20035;-73
2022/01/13 06:54:39;;;;;;;40.95;16.60;;;-4.20;99.90;;;;;;4949841;28;20031;-72
2022/01/13 06:57:04;;;;;;;38.15;15.65;;;-4.20;99.90;;;;;;4944627;28;20469;-72
2022/01/13 06:59:30;;;;;;;33.88;15.40;;;-4.20;99.90;;;;;;4932807;28;20066;-72
2022/01/13 07:01:59;;;;;;;39.85;15.40;;;-4.20;99.90;;;;;;4949680;28;20023;-72
2022/01/13 07:04:26;;;;;;;40.38;15.18;;;-4.10;99.90;;;;;;4951298;28;20046;-72
2022/01/13 07:06:52;;;;;;;36.63;14.85;;;-4.10;99.90;;;;;;4951161;28;20023;-72
2022/01/13 07:09:17;;;;;;;35.13;14.35;;;-4.10;99.90;;;;;;4948514;28;20473;-72
2022/01/13 07:11:45;;;;;;;34.53;14.65;;;-4.10;99.90;;;;;;4956620;28;20630;-64
2022/01/13 07:14:11;;;;;;;38.35;15.60;;;-4.10;99.90;;;;;;4953003;28;20061;-63
2022/01/13 07:16:37;;;;;;;37.13;16.15;;;-3.90;99.90;;;;;;4945025;28;20360;-73
2022/01/13 07:19:04;;;;;;;41.03;16.92;;;-3.70;99.90;;;;;;4953518;28;20146;-72
2022/01/13 07:21:30;;;;;;;32.53;15.38;;;-3.70;99.90;;;;;;4948141;28;21283;-73
2022/01/13 07:23:56;;;;;;;36.22;16.27;;;-3.70;99.90;;;;;;4933732;28;20030;-73
2022/01/13 07:26:22;;;;;;;37.30;16.23;;;-3.70;99.90;;;;;;4934306;28;20362;-73
2022/01/13 07:28:48;;;;;;;39.72;17.50;;;-3.60;99.90;;;;;;4954107;28;20159;-74
2022/01/13 07:31:17;;;;;;;39.55;17.90;;;-3.60;99.90;;;;;;4954721;28;20439;-73
2022/01/13 07:33:45;;;;;;;45.72;19.20;;;-3.60;99.90;;;;;;4954800;28;20174;-74
2022/01/13 07:36:11;;;;;;;39.92;19.15;;;-3.60;99.90;;;;;;4948647;28;20031;-73
2022/01/13 07:38:36;;;;;;;41.95;18.98;;;-3.50;99.90;;;;;;4949242;28;20042;-75
2022/01/13 07:41:03;;;;;;;39.42;19.25;;;-3.60;99.90;;;;;;4951176;28;20034;-74
2022/01/13 07:43:28;;;;;;;41.20;20.00;;;-3.60;99.90;;;;;;4938421;28;20019;-73
2022/01/13 07:45:55;;;;;;;42.25;19.67;;;-3.60;99.90;;;;;;4954802;28;20387;-73
2022/01/13 07:48:21;;;;;;;42.58;17.83;;;-3.60;99.90;;;;;;4948590;28;20111;-73
2022/01/13 07:50:48;;;;;;;43.05;20.23;;;-3.60;99.90;;;;;;4946706;28;20059;-73
2022/01/13 07:53:14;;;;;;;37.88;17.35;;;-3.50;99.90;;;;;;4949192;28;20046;-73
2022/01/13 07:55:41;;;;;;;37.40;17.40;;;-3.60;99.90;;;;;;4946005;28;20969;-73
2022/01/13 07:58:06;;;;;;;40.05;18.83;;;-3.60;99.90;;;;;;4956620;28;20019;-73
2022/01/13 08:00:32;;;;;;;37.42;18.48;;;-3.50;99.90;;;;;;4954588;28;20083;-74
2022/01/13 08:02:58;;;;;;;36.95;18.60;;;-3.50;99.90;;;;;;4947016;28;20477;-71
2022/01/13 08:05:23;;;;;;;46.25;20.73;;;-3.50;99.90;;;;;;4950225;28;20031;-72
2022/01/13 08:07:49;;;;;;;41.58;19.15;;;-3.50;99.90;;;;;;4956510;28;20093;-74
2022/01/13 08:10:15;;;;;;;40.30;20.05;;;-3.40;99.90;;;;;;4956104;28;20334;-73
2022/01/13 08:12:41;;;;;;;45.40;19.92;;;-3.40;99.90;;;;;;4952161;28;20105;-74
2022/01/13 08:15:11;;;;;;;56.47;24.30;;;-3.30;99.90;;;;;;4952894;28;20137;-73
2022/01/13 08:20:21;;;;;;;47.03;22.30;;;-3.30;99.90;;;;;;4954883;28;20065;-73
2022/01/13 08:22:47;;;;;;;40.85;18.13;;;-3.20;99.90;;;;;;4941664;28;20046;-74
2022/01/13 08:25:13;;;;;;;39.45;18.15;;;-3.30;99.90;;;;;;4949222;28;20448;-73
2022/01/13 08:27:38;;;;;;;38.42;18.80;;;-3.30;99.90;;;;;;4957120;28;20027;-72
2022/01/13 08:30:06;;;;;;;37.95;17.67;;;-3.30;99.90;;;;;;4953660;28;20095;-73
2022/01/13 08:32:31;;;;;;;43.22;18.42;;;-3.30;99.90;;;;;;4952720;28;20496;-73
2022/01/13 08:34:57;;;;;;;39.78;17.52;;;-3.20;99.90;;;;;;4949742;28;20106;-72
2022/01/13 08:37:23;;;;;;;35.85;18.80;;;-3.30;99.90;;;;;;4948217;28;20023;-73
2022/01/13 08:39:49;;;;;;;34.28;18.35;;;-3.20;99.90;;;;;;4948149;28;20074;-73
2022/01/13 08:42:15;;;;;;;36.50;17.83;;;-3.30;99.90;;;;;;4954275;28;20601;-73
2022/01/13 08:44:42;;;;;;;35.78;17.40;;;-3.20;99.90;;;;;;4951071;28;20027;-73
2022/01/13 08:47:09;;;;;;;38.83;18.40;;;-3.10;99.90;;;;;;4949275;28;20046;-72
2022/01/13 08:49:36;;;;;;;36.47;16.13;;;-3.00;99.90;;;;;;4951275;28;20479;-73
2022/01/13 08:52:03;;;;;;;35.67;17.45;;;-3.00;99.90;;;;;;4961161;28;20026;-73
2022/01/13 08:54:29;;;;;;;39.78;18.30;;;-2.90;99.90;;;;;;4946917;28;20134;-73
2022/01/13 08:56:57;;;;;;;43.10;18.15;;;-2.80;99.90;;;;;;4953108;28;20167;-73
2022/01/13 08:59:23;;;;;;;38.03;18.13;;;-2.80;99.90;;;;;;4955983;28;20379;-72
2022/01/13 09:01:48;;;;;;;34.65;17.42;;;-2.70;99.90;;;;;;4954583;28;20015;-72
2022/01/13 09:04:14;;;;;;;37.03;17.75;;;-2.60;99.90;;;;;;4950816;28;20437;-73
2022/01/13 09:06:40;;;;;;;37.53;18.05;;;-2.60;99.90;;;;;;4953628;28;20118;-73
2022/01/13 09:09:06;;;;;;;38.25;17.75;;;-2.50;99.90;;;;;;4937776;28;20409;-73
2022/01/13 09:11:32;;;;;;;39.83;17.35;;;-2.40;99.90;;;;;;4958333;28;20035;-73
2022/01/13 09:13:58;;;;;;;39.30;17.67;;;-2.30;99.90;;;;;;4961479;28;20452;-72
2022/01/13 09:16:27;;;;;;;35.38;16.77;;;-2.30;99.90;;;;;;4952076;28;20023;-73
2022/01/13 09:21:22;;;;;;;39.72;18.02;;;-2.10;99.90;;;;;;4947414;28;20544;-72
2022/01/13 09:23:48;;;;;;;42.88;19.05;;;-2.10;99.90;;;;;;4954922;28;20015;-74
2022/01/13 09:26:14;;;;;;;41.42;19.65;;;-2.10;99.90;;;;;;4954908;28;20499;-73
2022/01/13 09:28:40;;;;;;;35.42;18.40;;;-2.00;99.90;;;;;;4936110;28;20034;-74
2022/01/13 09:31:07;;;;;;;42.40;19.15;;;-2.00;99.90;;;;;;4956015;29;20078;-73
2022/01/13 09:33:33;;;;;;;46.35;17.88;;;-1.90;99.90;;;;;;4955854;29;20110;-74
2022/01/13 09:35:59;;;;;;;37.83;19.65;;;-1.90;99.90;;;;;;4953777;28;20478;-74
2022/01/13 09:38:25;;;;;;;40.78;20.15;;;-1.80;99.90;;;;;;4946704;28;20523;-74
2022/01/13 09:40:54;;;;;;;40.80;19.80;;;-1.70;99.90;;;;;;4939164;28;20039;-73
2022/01/13 09:43:22;;;;;;;38.55;19.30;;;-1.70;99.90;;;;;;4936657;29;20054;-72
2022/01/13 09:45:48;;;;;;;43.53;19.58;;;-1.60;99.90;;;;;;4947299;28;20031;-75
2022/01/13 09:48:14;;;;;;;41.13;19.23;;;-1.60;99.90;;;;;;4952276;28;20027;-75
2022/01/13 09:50:42;;;;;;;35.83;19.50;;;-1.50;99.90;;;;;;4953258;28;20042;-74
2022/01/13 09:53:08;;;;;;;40.95;19.15;;;-1.40;99.90;;;;;;4986357;23;20637;-80
2022/01/13 09:55:33;;;;;;;36.97;18.75;;;-1.40;99.90;;;;;;5045420;28;20025;-82
2022/01/13 09:58:03;;;;;;;42.35;19.67;;;-1.30;99.90;;;;;;5015933;28;20497;-79
2022/01/13 10:00:29;;;;;;;45.85;19.23;;;-1.30;99.90;;;;;;5043107;28;20035;-80
2022/01/13 10:02:56;;;;;;;44.78;19.52;;;-1.20;99.90;;;;;;5017160;28;20059;-79
2022/01/13 10:05:23;;;;;;;32.08;16.48;;;-1.20;99.90;;;;;;5019535;28;20021;-79
2022/01/13 10:07:51;;;;;;;41.65;19.00;;;-1.10;99.90;;;;;;5031055;28;20029;-81
2022/01/13 10:10:20;;;;;;;42.25;18.48;;;-1.10;99.90;;;;;;5016398;28;20036;-82
2022/01/13 10:12:48;;;;;;;35.60;17.98;;;-1.10;99.90;;;;;;5023721;28;20040;-80
2022/01/13 10:18:05;;;;;;;33.30;16.08;;;-1.00;99.90;;;;;;5023096;28;20156;-78
2022/01/13 10:20:32;;;;;;;35.10;17.50;;;-1.00;99.90;;;;;;5031791;28;20017;-78
2022/01/13 10:23:11;;;;;;;34.88;18.75;;;-1.00;99.90;;;;;;5034473;28;20112;-78
2022/01/13 10:25:40;;;;;;;37.00;17.35;;;-0.90;99.90;;;;;;5045700;28;20109;-79
2022/01/13 10:28:17;;;;;;;41.22;17.77;;;-0.90;99.90;;;;;;5033591;28;20029;-78
2022/01/13 10:30:45;;;;;;;35.63;16.42;;;-0.80;99.90;;;;;;5015755;28;20025;-79
2022/01/13 10:33:18;;;;;;;33.58;17.08;;;-0.80;99.90;;;;;;5039565;28;20025;-78
2022/01/13 10:35:44;;;;;;;38.23;17.43;;;-0.70;99.90;;;;;;5027486;28;20034;-79
2022/01/13 10:38:13;;;;;;;38.03;17.15;;;-0.60;99.90;;;;;;5030566;28;20267;-79
2022/01/13 10:40:41;;;;;;;32.47;16.58;;;-0.60;99.90;;;;;;5031164;28;20017;-79
2022/01/13 10:43:10;;;;;;;35.45;17.08;;;-0.60;99.90;;;;;;5020821;28;20025;-79
2022/01/13 10:45:53;;;;;;;37.35;16.73;;;-0.60;99.90;;;;;;5030240;28;20082;-79
2022/01/13 10:48:19;;;;;;;35.03;15.97;;;-0.50;99.90;;;;;;5039349;28;20485;-79
2022/01/13 10:50:46;;;;;;;33.63;16.55;;;-0.60;99.90;;;;;;5013988;28;20029;-79
2022/01/13 10:53:21;;;;;;;33.03;16.90;;;-0.50;99.90;;;;;;5025587;28;20098;-79
2022/01/13 10:55:51;;;;;;;35.03;16.85;;;-0.50;99.90;;;;;;5027541;28;20048;-79
2022/01/13 10:58:22;;;;;;;28.65;15.38;;;-0.50;99.90;;;;;;5029565;28;20030;-78
2022/01/13 11:00:50;;;;;;;38.50;17.33;;;-0.40;99.90;;;;;;5035710;28;20025;-81
2022/01/13 11:03:19;;;;;;;37.97;16.80;;;-0.40;99.90;;;;;;5032546;28;20017;-83
2022/01/13 11:05:59;;;;;;;37.38;17.85;;;-0.50;99.90;;;;;;5024700;28;20033;-83
2022/01/13 11:08:30;;;;;;;31.55;17.02;;;-0.40;99.90;;;;;;5010874;28;20033;-78
2022/01/13 11:11:00;;;;;;;33.65;16.00;;;-0.30;99.90;;;;;;5026005;28;20025;-78
2022/01/13 11:13:28;;;;;;;32.17;16.58;;;-0.30;99.90;;;;;;5028628;28;20060;-80
2022/01/13 11:15:55;;;;;;;34.35;17.42;;;-0.20;99.90;;;;;;5030319;28;20022;-79
2022/01/13 11:18:24;;;;;;;33.55;17.15;;;-0.20;99.90;;;;;;5014277;28;20017;-78
2022/01/13 11:20:50;;;;;;;39.47;18.60;;;-0.10;99.90;;;;;;5031356;28;20025;-78
2022/01/13 11:23:17;;;;;;;38.58;18.42;;;-0.10;99.90;;;;;;5039084;28;20071;-80
2022/01/13 11:25:45;;;;;;;35.28;17.33;;;-0.10;99.90;;;;;;5028424;28;20025;-80
2022/01/13 11:28:11;;;;;;;38.13;17.73;;;0.00;99.90;;;;;;5016978;28;20507;-79
2022/01/13 11:30:38;;;;;;;36.45;17.63;;;0.00;99.90;;;;;;5027179;28;20104;-79
2022/01/13 11:33:04;;;;;;;40.55;18.15;;;0.00;99.90;;;;;;5029767;28;20385;-80
2022/01/13 11:35:35;;;;;;;37.53;18.25;;;0.00;99.90;;;;;;5032721;28;20021;-80
2022/01/13 11:38:03;;;;;;;36.15;17.20;;;0.00;99.90;;;;;;5032916;28;20475;-78
2022/01/13 11:40:31;;;;;;;32.22;17.52;;;0.10;99.90;;;;;;5031295;28;20040;-78
2022/01/13 11:43:02;;;;;;;34.60;18.45;;;0.10;99.90;;;;;;5022795;28;20091;-81
2022/01/13 11:45:28;;;;;;;36.33;18.15;;;0.10;99.90;;;;;;5041306;28;20401;-80
2022/01/13 11:48:14;;;;;;;38.28;18.77;;;0.20;99.90;;;;;;5031601;28;20037;-81
2022/01/13 11:50:47;;;;;;;39.67;18.58;;;0.20;99.90;;;;;;5033395;28;20022;-83
2022/01/13 11:53:31;;;;;;;34.28;18.02;;;0.20;99.90;;;;;;5028167;28;20030;-80
2022/01/13 11:56:02;;;;;;;41.22;18.88;;;0.20;99.90;;;;;;5011378;28;20039;-79
2022/01/13 11:58:38;;;;;;;37.78;19.10;;;0.30;99.90;;;;;;5037878;28;20028;-80
2022/01/13 12:01:17;;;;;;;33.88;18.30;;;0.30;99.90;;;;;;5020497;28;20037;-79
2022/01/13 12:03:46;;;;;;;36.45;18.52;;;0.30;99.90;;;;;;5033401;28;20037;-80
2022/01/13 12:06:33;;;;;;;38.45;17.98;;;0.30;99.90;;;;;;5030994;28;20029;-79
2022/01/13 12:08:59;;;;;;;37.00;18.02;;;0.40;99.90;;;;;;5015496;28;20691;-78
2022/01/13 12:11:37;;;;;;;37.45;18.35;;;0.40;99.90;;;;;;5015529;28;20606;-74
2022/01/13 12:14:23;;;;;;;41.88;19.08;;;0.40;99.90;;;;;;5034135;28;20087;-81
2022/01/13 12:16:56;;;;;;;36.05;19.42;;;0.50;99.90;;;;;;5037749;23;20134;-74
2022/01/13 12:19:34;;;;;;;38.47;19.48;;;0.60;99.90;;;;;;4979412;28;20022;-74
2022/01/13 12:22:04;;;;;;;35.15;17.35;;;0.70;99.90;;;;;;4995147;28;20034;-75
2022/01/13 12:24:49;;;;;;;34.65;17.77;;;0.70;99.90;;;;;;4975909;28;20082;-74
2022/01/13 12:27:24;;;;;;;39.08;19.40;;;0.70;99.90;;;;;;4978948;28;20022;-75
2022/01/13 12:30:17;;;;;;;36.55;18.40;;;0.70;99.90;;;;;;4987902;28;20052;-74
2022/01/13 12:32:46;;;;;;;34.03;17.80;;;0.80;99.90;;;;;;4987903;28;20019;-76
2022/01/13 12:35:28;;;;;;;42.65;19.60;;;0.80;99.90;;;;;;4971058;28;20130;-76
2022/01/13 12:38:03;;;;;;;33.67;17.17;;;0.90;99.90;;;;;;4997493;28;20056;-74
2022/01/13 12:40:39;;;;;;;34.35;16.95;;;0.90;99.90;;;;;;4989663;28;20022;-74
2022/01/13 12:43:51;;;;;;;38.22;17.70;;;0.90;99.90;;;;;;4990396;28;20118;-75
2022/01/13 12:46:24;;;;;;;37.90;17.53;;;1.00;99.90;;;;;;4982279;28;20130;-75
2022/01/13 12:48:53;;;;;;;38.72;17.92;;;1.00;99.90;;;;;;4991766;28;20029;-75
2022/01/13 12:51:21;;;;;;;34.03;17.08;;;1.10;99.90;;;;;;4988889;28;20037;-76
2022/01/13 12:53:48;;;;;;;34.25;16.58;;;1.20;99.90;;;;;;4991735;28;20161;-75
2022/01/13 12:56:17;;;;;;;34.13;16.83;;;1.20;99.90;;;;;;4986778;28;20034;-75
2022/01/13 12:58:45;;;;;;;34.65;17.15;;;1.20;99.90;;;;;;4989144;28;20033;-75
2022/01/13 13:01:20;;;;;;;35.35;16.65;;;1.30;99.90;;;;;;4972548;28;20177;-74
2022/01/13 13:04:01;;;;;;;29.20;15.82;;;1.20;99.90;;;;;;4989075;28;20030;-76
2022/01/13 13:06:27;;;;;;;29.42;15.68;;;1.20;99.90;;;;;;4993597;28;20030;-75
2022/01/13 13:09:01;;;;;;;33.60;16.30;;;1.20;99.90;;;;;;4988478;28;20030;-75
2022/01/13 13:11:30;;;;;;;32.55;16.15;;;1.30;99.90;;;;;;4988602;28;20058;-75
2022/01/13 13:13:57;;;;;;;30.02;16.10;;;1.30;99.90;;;;;;4990210;28;20031;-74
2022/01/13 13:16:23;;;;;;;30.92;14.98;;;1.30;99.90;;;;;;4970901;28;20035;-77